Time;durP1;ratioP1;P1;durP2;ratioP2;P2;SDS_P1;SDS_P2;PMS_P1;PMS_P2;Temp;Humidity;BMP_temperature;BMP_pressure;BME280_temperature;BME280_humidity;BME280_pressure;Samples;Min_cycle;Max_cycle;Signal;HPM_P1;HPM_P2
2021/03/14 00:02:27;;;;;;;2.17;2.07;;;4.60;99.90;;;5.38;90.41;96724.59;5203857;28;20199;-59
2021/03/14 00:05:08;;;;;;;2.80;2.60;;;4.60;99.90;;;5.35;90.25;96731.09;5206861;28;20199;-58
2021/03/14 00:07:41;;;;;;;3.00;2.40;;;4.60;99.90;;;5.34;91.13;96744.56;5206892;28;20199;-60
2021/03/14 00:10:13;;;;;;;2.40;2.20;;;4.60;99.90;;;5.32;91.35;96747.03;5206763;28;20307;-60
2021/03/14 00:12:46;;;;;;;2.17;2.07;;;4.60;99.90;;;5.39;91.06;96746.59;5207431;28;20312;-60
2021/03/14 00:15:20;;;;;;;2.20;2.10;;;4.60;99.90;;;5.37;90.76;96750.69;5206818;28;20287;-60
2021/03/14 00:18:09;;;;;;;2.07;1.97;;;4.60;99.90;;;5.38;91.60;96756.66;5206352;28;20202;-61
2021/03/14 00:20:41;;;;;;;2.23;2.13;;;4.60;99.90;;;5.34;91.19;96757.25;5207296;28;20202;-59
2021/03/14 00:23:14;;;;;;;2.63;2.40;;;4.50;99.90;;;5.40;91.41;96758.47;5206875;28;20214;-61
2021/03/14 00:25:46;;;;;;;1.87;1.77;;;4.60;99.90;;;5.41;90.99;96757.69;5215299;28;20232;-59
2021/03/14 00:28:18;;;;;;;1.90;1.80;;;4.60;99.90;;;5.39;90.07;96759.25;5212638;28;20198;-60
2021/03/14 00:30:52;;;;;;;2.40;1.90;;;4.60;99.90;;;5.39;89.59;96763.47;5206645;28;20214;-59
2021/03/14 00:33:24;;;;;;;2.47;2.27;;;4.60;99.90;;;5.33;90.09;96763.97;5206229;28;20200;-60
2021/03/14 00:35:57;;;;;;;2.30;2.20;;;4.60;99.90;;;5.35;90.21;96751.38;5206740;28;20214;-59
2021/03/14 00:38:29;;;;;;;1.80;1.70;;;4.60;99.90;;;5.31;90.85;96750.31;5205678;28;20233;-58
2021/03/14 00:41:01;;;;;;;1.80;1.70;;;4.50;99.90;;;5.29;90.46;96744.28;5206395;28;20205;-59
2021/03/14 00:43:33;;;;;;;2.10;2.00;;;4.50;99.90;;;5.20;89.60;96752.22;5206546;28;20201;-61
2021/03/14 00:46:06;;;;;;;2.20;2.10;;;4.50;99.90;;;5.22;89.71;96757.38;5205889;28;20718;-58
2021/03/14 00:48:38;;;;;;;2.27;2.17;;;4.50;99.90;;;5.30;89.73;96750.25;5205829;28;20323;-60
2021/03/14 00:51:11;;;;;;;2.23;2.13;;;4.50;99.90;;;5.29;89.63;96751.88;5201121;28;20203;-59
2021/03/14 00:53:43;;;;;;;2.10;2.00;;;4.60;99.90;;;5.26;90.16;96755.91;5206271;28;20216;-58
2021/03/14 00:56:16;;;;;;;1.83;1.77;;;4.60;99.90;;;5.19;90.53;96758.06;5214094;28;20269;-59
2021/03/14 00:58:48;;;;;;;1.80;1.80;;;4.50;99.90;;;5.13;90.22;96772.91;5205232;28;20290;-56
2021/03/14 01:01:21;;;;;;;1.57;1.57;;;4.50;99.90;;;5.20;89.48;96775.00;5198721;28;20202;-59
2021/03/14 01:03:53;;;;;;;1.93;1.83;;;4.50;99.90;;;5.08;89.05;96765.81;5205117;28;20265;-61
2021/03/14 01:06:25;;;;;;;2.20;2.10;;;4.40;99.90;;;4.83;88.99;96771.91;5205507;28;20254;-61
2021/03/14 01:08:57;;;;;;;2.47;2.27;;;4.30;99.90;;;4.93;90.25;96771.72;5205352;28;20273;-60
2021/03/14 01:11:29;;;;;;;2.47;2.27;;;4.30;99.90;;;4.94;90.58;96763.31;5205229;28;20201;-58
2021/03/14 01:14:01;;;;;;;2.50;2.30;;;4.30;99.90;;;4.99;90.77;96765.28;5205052;28;20196;-60
2021/03/14 01:16:34;;;;;;;2.57;2.33;;;4.20;99.90;;;4.92;91.48;96769.97;5204840;28;20232;-61
2021/03/14 01:19:06;;;;;;;2.60;2.40;;;4.20;99.90;;;4.99;90.59;96775.41;5205231;28;20675;-61
2021/03/14 01:21:38;;;;;;;2.40;2.23;;;4.20;99.90;;;5.00;90.47;96787.25;5204938;28;20582;-61
2021/03/14 01:24:11;;;;;;;2.23;2.13;;;4.20;99.90;;;5.02;89.85;96800.91;5204609;28;20205;-60
2021/03/14 01:26:43;;;;;;;2.30;2.30;;;4.10;99.90;;;4.85;91.07;96810.00;5209872;28;20223;-61
2021/03/14 01:29:16;;;;;;;2.30;2.20;;;4.10;99.90;;;4.86;91.41;96811.72;5204639;28;20224;-61
2021/03/14 01:31:49;;;;;;;2.17;2.07;;;4.10;99.90;;;4.77;91.22;96799.38;5205209;28;20671;-59
2021/03/14 01:34:21;;;;;;;2.00;1.90;;;4.10;99.90;;;4.68;91.27;96816.53;5205423;28;20297;-61
2021/03/14 01:36:53;;;;;;;2.30;2.20;;;4.00;99.90;;;4.67;91.75;96807.22;5204367;28;20223;-60
2021/03/14 01:39:25;;;;;;;2.33;2.23;;;3.90;99.90;;;4.69;91.88;96806.53;5205419;28;20425;-61
2021/03/14 01:41:57;;;;;;;2.47;2.27;;;3.90;99.90;;;4.60;91.60;96800.00;5204749;28;20209;-61
2021/03/14 01:44:29;;;;;;;2.90;2.70;;;3.80;99.90;;;4.50;91.50;96799.44;5205282;28;20566;-60
2021/03/14 01:47:04;;;;;;;2.30;2.20;;;3.70;99.90;;;4.50;92.46;96804.50;5204893;28;20701;-61
2021/03/14 01:49:36;;;;;;;2.10;1.97;;;3.80;99.90;;;4.45;92.94;96798.25;5205231;28;20230;-60
2021/03/14 01:52:10;;;;;;;2.23;2.13;;;3.80;99.90;;;4.55;93.12;96796.28;5204939;28;20202;-60
2021/03/14 01:54:42;;;;;;;2.30;2.20;;;3.70;99.90;;;4.47;93.36;96796.72;5208920;28;20228;-59
2021/03/14 01:57:15;;;;;;;1.97;1.87;;;3.80;99.90;;;4.45;93.67;96794.84;5214624;28;20246;-61
2021/03/14 01:59:47;;;;;;;2.20;2.10;;;3.80;99.90;;;4.39;93.71;96790.28;5203702;28;20289;-61
2021/03/14 02:02:20;;;;;;;1.90;1.80;;;3.70;99.90;;;4.44;94.03;96793.13;5205140;28;20201;-61
2021/03/14 02:04:53;;;;;;;2.00;1.90;;;3.70;99.90;;;4.50;94.60;96799.44;5204440;28;20201;-61
2021/03/14 02:07:26;;;;;;;2.33;2.23;;;3.80;99.90;;;4.64;94.41;96801.97;5204967;28;20313;-61
2021/03/14 02:09:58;;;;;;;1.97;1.97;;;3.80;99.90;;;4.62;94.36;96796.78;5204390;28;20222;-60
2021/03/14 02:12:37;;;;;;;1.77;1.67;;;3.80;99.90;;;4.55;94.96;96801.34;5205024;28;20196;-61
2021/03/14 02:15:11;;;;;;;1.60;1.60;;;3.80;99.90;;;4.60;95.31;96805.94;5204244;28;20194;-60
2021/03/14 02:17:47;;;;;;;2.00;1.90;;;3.90;99.90;;;4.65;94.81;96811.28;5204720;28;20231;-60
2021/03/14 02:20:23;;;;;;;2.13;2.03;;;3.80;99.90;;;4.72;94.74;96819.38;5204823;28;20649;-60
2021/03/14 02:23:12;;;;;;;1.77;1.77;;;3.80;99.90;;;4.72;93.53;96821.00;5205145;28;20582;-60
2021/03/14 02:25:51;;;;;;;2.00;1.90;;;3.80;99.90;;;4.73;93.50;96822.78;5204106;28;20229;-61
2021/03/14 02:28:25;;;;;;;1.87;1.83;;;3.90;99.90;;;4.69;92.57;96825.88;5207716;28;20190;-61
2021/03/14 02:30:57;;;;;;;2.30;2.20;;;3.80;99.90;;;4.59;92.97;96828.63;5208899;28;20218;-60
2021/03/14 02:33:34;;;;;;;2.00;2.00;;;3.80;99.90;;;4.51;93.10;96831.53;5208699;28;20191;-61
2021/03/14 02:36:10;;;;;;;1.80;1.80;;;3.80;99.90;;;4.44;93.94;96839.53;5208391;28;20221;-61
2021/03/14 02:38:43;;;;;;;1.77;1.70;;;3.80;99.90;;;4.46;94.28;96840.50;5208684;28;20201;-60
2021/03/14 02:41:16;;;;;;;2.47;2.27;;;3.80;99.90;;;4.49;94.58;96842.31;5208353;28;20257;-61
2021/03/14 02:43:50;;;;;;;2.20;2.07;;;3.70;99.90;;;4.42;95.00;96842.72;5208350;28;20201;-61
2021/03/14 02:46:23;;;;;;;2.00;1.90;;;3.80;99.90;;;4.50;95.83;96852.56;5208337;28;20255;-60
2021/03/14 02:48:56;;;;;;;1.70;1.70;;;3.80;99.90;;;4.51;95.04;96846.72;5208045;28;20289;-61
2021/03/14 02:51:28;;;;;;;1.70;1.70;;;3.80;99.90;;;4.67;94.74;96852.75;5208238;28;20285;-60
2021/03/14 02:54:01;;;;;;;1.83;1.80;;;3.80;99.90;;;4.73;94.65;96848.06;5208473;28;20202;-59
2021/03/14 02:56:34;;;;;;;2.33;2.20;;;3.80;99.90;;;4.73;93.38;96856.53;5218725;28;20682;-61
2021/03/14 02:59:08;;;;;;;2.23;2.13;;;3.80;99.90;;;4.58;92.89;96857.22;5212027;28;20198;-61
2021/03/14 03:01:40;;;;;;;1.93;1.93;;;3.70;99.90;;;4.62;92.88;96857.53;5207930;28;20576;-59
2021/03/14 03:04:13;;;;;;;2.60;2.50;;;3.70;99.90;;;4.67;92.22;96867.94;5208086;28;20201;-60
2021/03/14 03:06:47;;;;;;;2.43;2.33;;;3.70;99.90;;;4.58;91.55;96877.47;5207091;28;20222;-58
2021/03/14 03:09:20;;;;;;;2.40;2.37;;;3.70;99.90;;;4.53;91.71;96871.25;5208148;28;20218;-59
2021/03/14 03:11:55;;;;;;;2.47;2.37;;;3.70;99.90;;;4.51;92.00;96881.25;5208108;28;20205;-61
2021/03/14 03:14:31;;;;;;;1.90;1.90;;;3.60;99.90;;;4.47;92.12;96885.25;5207611;28;20193;-61
2021/03/14 03:17:04;;;;;;;2.27;2.17;;;3.60;99.90;;;4.33;92.70;96891.06;5207394;28;20305;-61
2021/03/14 03:19:37;;;;;;;2.33;2.23;;;3.60;99.90;;;4.40;93.02;96893.22;5208312;28;20717;-60
2021/03/14 03:22:10;;;;;;;2.50;2.40;;;3.60;99.90;;;4.48;93.30;96907.25;5207698;28;20281;-59
2021/03/14 03:24:42;;;;;;;2.43;2.33;;;3.60;99.90;;;4.41;92.25;96914.34;5211916;28;20219;-61
2021/03/14 03:27:14;;;;;;;2.27;2.17;;;3.60;99.90;;;4.26;92.90;96915.09;5214372;28;20304;-60
2021/03/14 03:29:47;;;;;;;2.17;2.07;;;3.50;99.90;;;4.33;93.34;96912.97;5192728;28;20311;-61
2021/03/14 03:32:20;;;;;;;2.43;2.33;;;3.60;99.90;;;4.33;93.20;96921.44;5207737;28;20229;-61
2021/03/14 03:34:53;;;;;;;2.73;2.57;;;3.50;99.90;;;4.23;93.47;96924.13;5207577;28;20298;-59
2021/03/14 03:37:25;;;;;;;3.20;2.93;;;3.50;99.90;;;4.21;94.20;96933.28;5207812;28;20599;-61
2021/03/14 03:39:57;;;;;;;2.53;2.43;;;3.50;99.90;;;4.17;94.75;96933.84;5206714;28;20570;-61
2021/03/14 03:42:34;;;;;;;3.00;2.80;;;3.50;99.90;;;4.24;94.45;96938.53;5207233;28;20208;-61
2021/03/14 03:45:09;;;;;;;3.00;2.80;;;3.50;99.90;;;4.29;94.52;96944.75;5207368;28;20668;-61
2021/03/14 03:47:43;;;;;;;3.17;2.97;;;3.50;99.90;;;4.39;93.93;96943.72;5207210;28;20207;-60
2021/03/14 03:50:17;;;;;;;3.03;2.80;;;3.50;99.90;;;4.35;94.19;96942.66;5207020;28;20226;-61
2021/03/14 03:52:50;;;;;;;3.17;2.87;;;3.50;99.90;;;4.26;93.84;96947.97;5207588;28;20209;-59
2021/03/14 03:55:23;;;;;;;3.80;3.50;;;3.60;99.90;;;4.44;94.29;96955.91;5215482;28;20240;-60
2021/03/14 03:57:56;;;;;;;3.87;2.87;;;3.60;99.90;;;4.36;93.31;96963.75;5214581;28;20603;-60
2021/03/14 04:00:29;;;;;;;3.10;2.90;;;3.50;99.90;;;4.48;93.27;96962.03;5207095;28;20286;-61
2021/03/14 04:03:04;;;;;;;3.90;3.13;;;3.60;99.90;;;4.37;93.21;96966.38;5206769;28;20277;-60
2021/03/14 04:05:37;;;;;;;3.67;3.37;;;3.60;99.90;;;4.36;92.79;96977.28;5206705;28;20224;-59
2021/03/14 04:08:11;;;;;;;3.60;3.40;;;3.60;99.90;;;4.38;92.82;96980.78;5206419;28;20711;-60
2021/03/14 04:10:44;;;;;;;3.43;3.20;;;3.60;99.90;;;4.38;93.43;96988.38;5206996;28;20228;-60
2021/03/14 04:13:17;;;;;;;3.10;2.90;;;3.60;99.90;;;4.32;92.73;96989.59;5206405;28;20212;-60
2021/03/14 04:15:50;;;;;;;3.33;3.13;;;3.50;99.90;;;4.28;92.59;97001.19;5215202;22;20254;-60
2021/03/14 04:18:23;;;;;;;3.10;2.90;;;3.50;99.90;;;4.27;93.16;96997.78;5227029;28;20213;-61
2021/03/14 04:21:15;;;;;;;3.73;2.43;;;3.60;99.90;;;4.25;93.79;97009.44;5227083;28;20220;-61
2021/03/14 04:23:51;;;;;;;3.10;2.90;;;3.60;99.90;;;4.24;93.31;97011.88;5227231;28;20230;-61
2021/03/14 04:26:24;;;;;;;3.57;3.37;;;3.60;99.90;;;4.23;93.71;97015.16;5240911;28;20308;-60
2021/03/14 04:28:59;;;;;;;3.70;3.40;;;3.50;99.90;;;4.19;93.72;97029.25;5223588;28;20290;-61
2021/03/14 04:31:32;;;;;;;3.57;3.27;;;3.40;99.90;;;4.26;93.45;97025.47;5221076;28;20200;-61
2021/03/14 04:34:05;;;;;;;3.27;3.07;;;3.50;99.90;;;4.00;92.91;97027.13;5226412;28;20209;-61
2021/03/14 04:36:38;;;;;;;3.00;2.90;;;3.40;99.90;;;4.03;93.69;97032.41;5226863;28;20216;-61
2021/03/14 04:39:10;;;;;;;2.87;2.67;;;3.40;99.90;;;3.93;94.15;97040.13;5211902;28;20207;-61
2021/03/14 04:41:45;;;;;;;3.57;3.27;;;3.30;99.90;;;3.97;94.72;97037.03;5223730;28;20682;-60
2021/03/14 04:44:19;;;;;;;3.13;2.87;;;3.30;99.90;;;4.03;94.66;97045.06;5227130;28;20211;-60
2021/03/14 04:46:52;;;;;;;3.27;3.10;;;3.40;99.90;;;3.94;94.88;97046.91;5219092;28;20796;-61
2021/03/14 04:49:24;;;;;;;4.17;3.03;;;3.40;99.90;;;3.99;94.93;97040.53;5206490;28;20255;-60
2021/03/14 04:51:57;;;;;;;3.30;3.10;;;3.30;99.90;;;4.10;94.63;97048.00;5220340;28;20579;-61
2021/03/14 04:54:30;;;;;;;4.33;3.33;;;3.30;99.90;;;4.11;94.65;97045.56;5228882;28;20239;-61
2021/03/14 04:57:04;;;;;;;2.93;2.73;;;3.40;99.90;;;4.11;93.01;97050.59;5234022;28;20225;-60
2021/03/14 04:59:38;;;;;;;3.47;3.27;;;3.40;99.90;;;4.15;93.45;97062.72;5227343;28;20290;-60
2021/03/14 05:02:13;;;;;;;3.07;2.87;;;3.40;99.90;;;4.14;93.96;97057.53;5213425;28;20290;-60
2021/03/14 05:04:48;;;;;;;3.47;3.17;;;3.40;99.90;;;4.04;94.17;97063.63;5206035;28;20208;-60
2021/03/14 05:07:21;;;;;;;3.30;3.10;;;3.40;99.90;;;4.01;94.59;97064.28;5224666;28;20230;-61
2021/03/14 05:09:54;;;;;;;2.90;2.70;;;3.40;99.90;;;4.08;95.05;97078.22;5227054;28;20234;-60
2021/03/14 05:12:27;;;;;;;3.43;3.23;;;3.40;99.90;;;4.10;94.77;97085.91;5226018;28;20251;-60
2021/03/14 05:14:59;;;;;;;3.20;3.00;;;3.40;99.90;;;4.11;94.79;97088.53;5225504;28;20193;-60
2021/03/14 05:17:34;;;;;;;3.47;3.17;;;3.40;99.90;;;4.35;93.95;97091.91;5224866;28;20223;-61
2021/03/14 05:20:09;;;;;;;3.40;3.20;;;3.50;99.90;;;4.17;94.02;97103.25;5226765;28;20228;-60
2021/03/14 05:22:44;;;;;;;3.50;3.23;;;3.40;99.90;;;4.22;94.31;97109.53;5222241;28;20192;-61
2021/03/14 05:25:18;;;;;;;3.00;2.80;;;3.50;99.90;;;4.22;93.83;97112.03;5233698;28;20231;-60
2021/03/14 05:27:53;;;;;;;3.27;3.07;;;3.50;99.90;;;4.10;93.49;97123.84;5227217;28;20216;-61
2021/03/14 05:30:29;;;;;;;3.20;3.10;;;3.40;99.90;;;4.09;94.67;97133.06;5210034;28;20725;-60
2021/03/14 05:33:03;;;;;;;3.53;3.33;;;3.40;99.90;;;4.23;94.76;97127.31;5219599;28;20286;-60
2021/03/14 05:35:35;;;;;;;3.70;3.50;;;3.40;99.90;;;4.31;94.54;97140.50;5211749;28;20280;-60
2021/03/14 05:38:07;;;;;;;3.10;2.90;;;3.50;99.90;;;4.35;93.70;97145.00;5224105;28;20204;-61
2021/03/14 05:40:40;;;;;;;3.80;3.57;;;3.50;99.90;;;4.38;93.53;97144.31;5221188;28;20197;-61
2021/03/14 05:43:12;;;;;;;3.10;2.80;;;3.50;99.90;;;4.35;92.78;97142.50;5226058;28;20277;-60
2021/03/14 05:45:45;;;;;;;3.30;3.00;;;3.50;99.90;;;4.22;92.61;97150.84;5225178;28;20209;-60
2021/03/14 05:48:17;;;;;;;3.50;3.20;;;3.50;99.90;;;4.25;92.76;97150.19;5223092;28;20233;-61
2021/03/14 05:50:50;;;;;;;3.77;3.43;;;3.50;99.90;;;4.16;92.39;97155.50;5223810;28;20218;-61
2021/03/14 05:53:23;;;;;;;3.60;3.27;;;3.50;99.90;;;4.31;93.18;97149.75;5226026;28;20205;-60
2021/03/14 05:55:55;;;;;;;3.37;3.07;;;3.50;99.90;;;4.33;92.75;97156.66;5233442;28;20683;-59
2021/03/14 05:58:28;;;;;;;5.43;3.33;;;3.50;99.90;;;4.28;91.94;97155.47;5232759;28;20196;-61
2021/03/14 06:01:02;;;;;;;3.47;3.10;;;3.50;99.90;;;4.32;91.07;97161.59;5224562;28;20566;-59
2021/03/14 06:03:37;;;;;;;3.40;3.20;;;3.50;99.90;;;4.13;91.29;97159.47;5221977;28;20203;-61
2021/03/14 06:06:11;;;;;;;3.80;3.50;;;3.50;99.90;;;4.20;92.29;97164.16;5224344;28;20215;-60
2021/03/14 06:08:44;;;;;;;3.40;2.87;;;3.50;99.90;;;4.19;92.21;97170.00;5224552;28;20200;-61
2021/03/14 06:11:16;;;;;;;2.70;2.50;;;3.50;99.90;;;4.19;93.11;97175.06;5208402;28;20754;-61
2021/03/14 06:13:49;;;;;;;4.83;3.03;;;3.50;99.90;;;4.28;92.42;97175.69;5219295;28;20296;-60
2021/03/14 06:16:21;;;;;;;4.60;3.70;;;3.50;99.90;;;4.25;91.96;97185.59;5222166;28;20597;-61
2021/03/14 06:18:54;;;;;;;3.33;3.00;;;3.50;99.90;;;4.42;91.70;97187.66;5214888;28;20209;-61
2021/03/14 06:21:29;;;;;;;3.30;3.10;;;3.60;99.90;;;4.49;91.18;97192.38;5224217;28;20582;-61
2021/03/14 06:24:04;;;;;;;4.37;2.97;;;3.60;99.90;;;4.59;91.21;97193.00;5223162;28;20291;-60
2021/03/14 06:26:40;;;;;;;4.00;3.60;;;3.60;99.90;;;4.61;90.44;97201.59;5236819;28;20222;-60
2021/03/14 06:29:24;;;;;;;2.93;2.80;;;3.70;99.90;;;4.62;91.01;97203.34;5220454;28;20203;-60
2021/03/14 06:31:59;;;;;;;2.90;2.70;;;3.70;99.90;;;4.60;89.55;97210.81;5221735;28;20209;-60
2021/03/14 06:34:35;;;;;;;3.33;3.13;;;3.70;99.90;;;4.65;90.07;97211.16;5217835;28;20622;-60
2021/03/14 06:37:12;;;;;;;3.00;2.80;;;3.70;99.90;;;4.64;89.94;97214.47;5214395;28;20223;-60
2021/03/14 06:39:47;;;;;;;3.80;3.40;;;3.70;99.90;;;4.72;90.04;97216.75;5224018;28;20208;-60
2021/03/14 06:42:31;;;;;;;3.90;2.90;;;3.80;99.90;;;4.74;89.22;97229.50;5217603;28;20197;-60
2021/03/14 06:45:07;;;;;;;4.47;3.10;;;3.90;99.90;;;4.68;89.89;97234.13;5205220;28;20205;-61
2021/03/14 06:47:44;;;;;;;3.30;3.00;;;3.90;99.90;;;4.68;90.74;97239.19;5218148;28;20220;-61
2021/03/14 06:50:38;;;;;;;3.17;2.67;;;3.80;99.90;;;4.61;90.12;97247.16;5213952;28;20222;-61
2021/03/14 06:53:13;;;;;;;4.37;3.33;;;3.80;99.90;;;4.73;90.50;97263.19;5225271;28;20649;-62
2021/03/14 06:55:47;;;;;;;2.97;2.73;;;3.80;99.90;;;4.70;90.57;97262.97;5229846;28;20203;-61
2021/03/14 06:58:25;;;;;;;2.63;2.43;;;3.90;99.90;;;4.61;90.37;97277.53;5221819;28;20729;-61
2021/03/14 07:01:15;;;;;;;3.23;3.03;;;3.80;99.90;;;4.63;88.95;97275.94;5225321;28;20542;-61
2021/03/14 07:03:50;;;;;;;3.10;2.90;;;3.80;99.90;;;4.69;89.86;97289.94;5215970;28;20751;-61
2021/03/14 07:06:26;;;;;;;3.47;2.63;;;3.80;99.90;;;4.66;90.95;97289.69;5230502;28;20310;-61
2021/03/14 07:09:09;;;;;;;3.63;3.30;;;3.80;99.90;;;4.64;89.68;97296.31;5222147;28;20736;-60
2021/03/14 07:11:43;;;;;;;3.10;2.90;;;3.80;99.90;;;4.51;89.69;97297.09;5217971;28;20707;-61
2021/03/14 07:14:17;;;;;;;2.77;2.57;;;3.80;99.90;;;4.75;89.39;97307.22;5224942;28;20295;-60
2021/03/14 07:16:51;;;;;;;3.50;3.23;;;3.80;99.90;;;4.69;89.28;97309.28;5215186;28;20234;-60
2021/03/14 07:19:26;;;;;;;3.30;2.90;;;3.90;99.90;;;4.66;90.45;97301.47;5212119;28;20293;-61
2021/03/14 07:22:01;;;;;;;3.37;3.07;;;3.90;99.90;;;4.63;90.04;97317.31;5227860;28;20287;-61
2021/03/14 07:24:36;;;;;;;2.77;2.57;;;4.00;99.90;;;4.67;89.49;97318.44;5224497;28;20227;-61
2021/03/14 07:27:11;;;;;;;4.20;2.87;;;4.00;99.90;;;4.81;90.03;97330.41;5232820;28;20216;-61
2021/03/14 07:29:43;;;;;;;3.10;2.90;;;4.00;99.90;;;4.85;89.79;97341.63;5230725;28;20191;-61
2021/03/14 07:32:15;;;;;;;3.27;2.90;;;4.10;99.90;;;4.87;90.21;97340.97;5225546;28;20205;-61
2021/03/14 07:34:48;;;;;;;3.07;2.87;;;4.10;99.90;;;5.01;89.56;97344.47;5209352;28;20217;-61
2021/03/14 07:37:22;;;;;;;3.73;3.37;;;4.10;99.90;;;4.92;88.51;97352.31;5217032;28;20233;-61
2021/03/14 07:39:54;;;;;;;2.90;2.70;;;4.10;99.90;;;5.06;88.69;97354.91;5220413;28;20216;-61
2021/03/14 07:42:27;;;;;;;3.30;3.00;;;4.20;99.90;;;5.13;89.23;97355.44;5222179;28;20189;-61
2021/03/14 07:45:00;;;;;;;3.20;2.90;;;4.40;99.90;;;5.18;87.56;97361.72;5217359;28;20629;-61
2021/03/14 07:47:38;;;;;;;3.50;3.10;;;4.30;99.90;;;5.20;85.80;97357.63;5210770;28;20222;-61
2021/03/14 07:50:15;;;;;;;3.07;2.77;;;4.30;99.90;;;5.25;85.06;97355.41;5216461;28;20301;-61
2021/03/14 07:52:51;;;;;;;5.23;3.30;;;4.40;99.90;;;5.14;84.58;97374.06;5207208;28;20200;-61
2021/03/14 07:55:24;;;;;;;4.10;3.13;;;4.30;99.90;;;5.08;86.56;97378.69;5232603;28;20205;-60
2021/03/14 07:57:56;;;;;;;5.17;3.53;;;4.40;99.90;;;5.14;87.64;97374.06;5241947;28;20305;-61
2021/03/14 08:00:31;;;;;;;3.63;2.90;;;4.30;99.90;;;5.19;84.21;97382.88;5249248;28;20299;-60
2021/03/14 08:03:07;;;;;;;3.50;3.03;;;4.30;99.90;;;5.20;83.67;97389.69;5248657;28;20474;-61
2021/03/14 08:05:51;;;;;;;3.60;2.50;;;4.30;99.90;;;5.09;83.53;97401.59;5230589;28;20201;-61
2021/03/14 08:08:49;;;;;;;5.90;2.73;;;4.30;99.90;;;5.01;83.57;97407.78;5226158;28;20198;-61
2021/03/14 08:11:27;;;;;;;3.30;2.83;;;4.30;99.90;;;4.93;83.77;97404.69;5228083;28;20804;-61
2021/03/14 08:13:59;;;;;;;3.93;2.70;;;4.30;99.90;;;5.01;83.46;97415.38;5227611;28;20295;-60
2021/03/14 08:16:31;;;;;;;3.60;3.30;;;4.20;99.90;;;5.07;81.74;97423.41;5227635;28;20248;-59
2021/03/14 08:19:12;;;;;;;3.47;3.13;;;4.30;99.90;;;5.09;78.45;97424.38;5227786;28;20205;-61
2021/03/14 08:21:44;;;;;;;3.63;2.83;;;4.30;99.90;;;5.21;79.78;97419.31;5211449;28;20289;-61
2021/03/14 08:24:32;;;;;;;4.43;3.27;;;4.30;99.90;;;5.20;80.77;97430.22;5217514;28;20206;-60
2021/03/14 08:27:08;;;;;;;4.27;3.03;;;4.50;99.90;;;5.37;79.42;97422.13;5238292;28;20220;-60
2021/03/14 08:29:43;;;;;;;4.90;2.90;;;4.50;99.90;;;5.45;80.48;97434.47;5248119;28;20202;-61
2021/03/14 08:32:22;;;;;;;5.63;3.30;;;4.60;99.90;;;5.42;81.36;97419.94;5248434;28;20212;-61
2021/03/14 08:34:54;;;;;;;3.80;2.73;;;4.70;99.90;;;5.53;82.81;97425.75;5247771;28;20200;-61
2021/03/14 08:37:29;;;;;;;5.43;3.07;;;4.70;99.90;;;5.60;82.84;97418.66;5234688;28;20218;-61
2021/03/14 08:40:05;;;;;;;3.50;3.17;;;4.80;99.90;;;5.60;82.51;97427.91;5226214;28;20573;-61
2021/03/14 08:42:50;;;;;;;3.33;2.90;;;4.80;99.90;;;5.70;80.70;97429.47;5227012;28;20233;-61
2021/03/14 08:45:24;;;;;;;7.47;3.23;;;4.80;99.90;;;5.58;80.03;97439.59;5227006;28;20278;-61
2021/03/14 08:47:56;;;;;;;3.47;2.90;;;4.80;99.90;;;5.65;80.49;97435.06;5220817;28;20224;-61
2021/03/14 08:50:28;;;;;;;4.20;3.20;;;4.80;99.90;;;5.80;80.05;97436.91;5215781;28;20225;-61
2021/03/14 08:53:01;;;;;;;3.67;2.97;;;5.00;99.90;;;5.88;79.52;97435.78;5224612;28;20199;-62
2021/03/14 08:55:36;;;;;;;4.23;2.87;;;5.10;99.90;;;5.95;81.84;97437.09;5223500;28;20577;-61
2021/03/14 08:58:13;;;;;;;4.97;2.90;;;5.20;99.90;;;6.21;77.91;97441.38;5227272;28;20577;-63
2021/03/14 09:01:04;;;;;;;5.47;2.67;;;5.30;99.90;;;6.38;74.10;97437.41;5221956;28;20215;-64
2021/03/14 09:03:41;;;;;;;4.57;2.67;;;5.50;99.90;;;6.52;74.49;97431.59;5212528;28;20301;-60
2021/03/14 09:06:30;;;;;;;4.30;2.57;;;5.50;99.90;;;6.57;72.97;97435.31;5210922;28;20219;-60
2021/03/14 09:09:05;;;;;;;4.43;2.63;;;5.40;99.90;;;6.50;71.92;97440.78;5212826;28;20208;-61
2021/03/14 09:11:42;;;;;;;2.90;2.67;;;5.40;99.90;;;6.51;72.61;97442.53;5209323;28;20209;-62
2021/03/14 09:14:32;;;;;;;5.07;2.43;;;5.40;99.90;;;6.53;72.05;97433.38;5208553;28;20228;-60
2021/03/14 09:17:08;;;;;;;3.70;3.37;;;5.40;99.90;;;6.48;73.09;97430.53;5210194;28;20228;-62
2021/03/14 09:19:48;;;;;;;4.50;3.00;;;5.50;99.90;;;6.56;73.36;97427.63;5219751;28;20653;-62
2021/03/14 09:22:22;;;;;;;4.47;2.90;;;5.60;99.90;;;6.66;69.49;97422.34;5225206;28;20487;-61
2021/03/14 09:25:02;;;;;;;3.67;2.80;;;5.70;99.90;;;6.75;71.10;97428.91;5224251;28;20197;-61
2021/03/14 09:27:39;;;;;;;3.60;2.50;;;5.80;99.90;;;7.05;68.89;97436.72;5231027;28;20274;-60
2021/03/14 09:30:13;;;;;;;2.77;2.57;;;5.90;99.90;;;6.96;67.26;97431.06;5224640;28;20224;-59
2021/03/14 09:32:49;;;;;;;4.07;2.50;;;5.90;99.90;;;6.98;68.48;97434.56;5215048;28;20205;-61
2021/03/14 09:35:28;;;;;;;4.10;3.17;;;5.90;99.90;;;7.02;67.29;97438.19;5217705;28;20579;-62
2021/03/14 09:38:03;;;;;;;3.93;2.80;;;5.90;99.90;;;6.85;69.46;97438.00;5220674;28;20236;-62
2021/03/14 09:40:37;;;;;;;2.97;2.77;;;5.90;99.90;;;7.04;66.98;97436.63;5227684;28;20194;-62
2021/03/14 09:43:16;;;;;;;3.47;2.60;;;5.80;99.90;;;6.72;67.09;97454.13;5219075;28;20209;-62
2021/03/14 09:45:52;;;;;;;2.43;2.23;;;5.70;99.90;;;6.64;68.63;97444.22;5215225;28;20205;-63
2021/03/14 09:48:26;;;;;;;2.60;2.27;;;5.50;99.90;;;6.43;70.43;97443.69;5214738;28;20661;-61
2021/03/14 09:51:01;;;;;;;3.63;2.90;;;5.40;99.90;;;6.42;70.08;97457.16;5222214;28;20628;-62
2021/03/14 09:53:35;;;;;;;3.17;2.63;;;5.40;99.90;;;6.35;69.85;97440.63;5225745;28;20195;-63
2021/03/14 09:56:09;;;;;;;2.60;2.37;;;5.40;99.90;;;6.54;68.19;97455.44;5229841;28;20255;-63
2021/03/14 09:58:41;;;;;;;2.73;2.53;;;5.50;99.90;;;6.41;70.08;97448.69;5216781;28;20201;-63
2021/03/14 10:01:13;;;;;;;3.17;2.87;;;5.50;99.90;;;6.46;69.46;97449.84;5224399;28;20200;-63
2021/03/14 10:03:57;;;;;;;3.97;3.67;;;5.60;99.90;;;6.59;70.48;97449.00;5216669;28;20201;-63
2021/03/14 10:06:38;;;;;;;4.43;3.50;;;5.60;99.90;;;6.77;69.38;97445.09;5218944;28;20723;-63
2021/03/14 10:09:21;;;;;;;4.63;3.13;;;5.80;99.90;;;6.89;68.49;97441.59;5208242;28;20202;-63
2021/03/14 10:11:55;;;;;;;2.80;2.50;;;5.90;99.90;;;6.85;68.06;97445.63;5214991;28;20225;-62
2021/03/14 10:14:28;;;;;;;2.83;2.60;;;6.00;99.90;;;6.94;67.40;97442.78;5217652;28;20201;-62
2021/03/14 10:17:00;;;;;;;2.97;2.77;;;6.00;99.90;;;6.83;68.28;97441.22;5224925;22;20233;-62
2021/03/14 10:19:32;;;;;;;2.63;2.43;;;5.90;99.90;;;6.72;68.39;97443.97;5204119;28;21166;-62
2021/03/14 10:22:05;;;;;;;2.80;2.60;;;5.80;99.90;;;6.83;68.78;97441.22;5201850;28;20186;-62
2021/03/14 10:24:45;;;;;;;3.00;2.67;;;5.90;99.90;;;7.10;65.80;97437.91;5205901;28;20198;-62
2021/03/14 10:27:22;;;;;;;2.70;2.50;;;6.00;99.90;;;7.17;66.71;97434.94;5212214;28;20224;-61
2021/03/14 10:30:00;;;;;;;3.50;2.57;;;6.20;99.90;;;7.31;66.85;97433.28;5194148;28;20198;-62
2021/03/14 10:32:36;;;;;;;3.83;2.23;;;6.30;99.90;;;7.46;66.52;97438.44;5200415;28;20243;-62
2021/03/14 10:35:12;;;;;;;2.63;2.10;;;6.50;99.90;;;7.72;65.13;97423.91;5194662;28;20642;-60
2021/03/14 10:37:44;;;;;;;2.60;2.47;;;6.60;99.90;;;7.85;62.03;97426.41;5196101;28;20224;-62
2021/03/14 10:40:20;;;;;;;4.43;3.87;;;6.70;99.90;;;7.95;62.34;97425.28;5200810;28;20204;-63
2021/03/14 10:42:53;;;;;;;3.23;2.90;;;6.90;99.90;;;8.05;61.22;97419.97;5198929;28;20199;-63
2021/03/14 10:45:26;;;;;;;2.87;2.57;;;6.90;99.90;;;8.23;59.58;97422.72;5193345;28;20289;-62
2021/03/14 10:48:01;;;;;;;3.17;2.73;;;7.00;99.90;;;8.04;59.84;97426.72;5203840;28;20300;-62
2021/03/14 10:50:35;;;;;;;3.20;2.57;;;6.90;99.90;;;7.99;60.89;97435.75;5200131;28;20313;-62
2021/03/14 10:53:10;;;;;;;2.57;2.17;;;6.80;99.90;;;7.75;62.27;97437.69;5188316;28;20289;-63
2021/03/14 10:55:44;;;;;;;3.47;2.33;;;6.70;99.90;;;7.65;61.81;97441.34;5193402;28;20197;-62
2021/03/14 10:58:18;;;;;;;4.17;2.53;;;6.50;99.90;;;7.47;61.52;97446.94;5198573;28;20312;-62
2021/03/14 11:00:54;;;;;;;2.57;2.37;;;6.30;99.90;;;7.28;62.43;97453.44;5191307;28;20194;-62
2021/03/14 11:03:36;;;;;;;4.20;2.30;;;6.30;99.90;;;7.27;62.15;97471.09;5197185;28;20194;-59
2021/03/14 11:06:12;;;;;;;3.10;2.40;;;6.30;99.90;;;7.13;63.23;97466.06;5199861;28;20225;-63